Time;durP1;ratioP1;P1;durP2;ratioP2;P2;SDS_P1;SDS_P2;PMS_P1;PMS_P2;Temp;Humidity;BMP_temperature;BMP_pressure;BME280_temperature;BME280_humidity;BME280_pressure;Samples;Min_cycle;Max_cycle;Signal;HPM_P1;HPM_P2
2023/08/19 00:00:59;;;;;;;3.38;1.73;;;;;;;20.13;100.00;102125.59;5096816;28;20064;-75
2023/08/19 00:03:25;;;;;;;3.42;1.85;;;;;;;19.79;100.00;102075.16;5097705;28;20024;-74
2023/08/19 00:05:50;;;;;;;4.93;1.65;;;;;;;20.03;100.00;102116.25;5093679;28;20122;-74
2023/08/19 00:08:16;;;;;;;2.33;1.58;;;;;;;19.99;100.00;102124.06;5093946;28;20388;-74
2023/08/19 00:10:42;;;;;;;4.30;1.67;;;;;;;20.06;100.00;102116.63;5096806;28;20043;-74
2023/08/19 00:13:07;;;;;;;2.15;1.27;;;;;;;20.07;100.00;102123.78;5095461;28;20568;-74
2023/08/19 00:15:33;;;;;;;5.43;1.73;;;;;;;20.19;100.00;102118.34;5097186;28;20028;-75
2023/08/19 00:18:00;;;;;;;3.83;1.60;;;;;;;19.94;100.00;102102.09;5095448;28;20024;-74
2023/08/19 00:20:28;;;;;;;4.45;1.60;;;;;;;20.07;100.00;102106.56;5098248;28;20031;-74
2023/08/19 00:22:57;;;;;;;5.18;1.50;;;;;;;19.95;100.00;102101.84;5097898;28;20028;-74
2023/08/19 00:25:24;;;;;;;3.28;1.55;;;;;;;19.93;100.00;102073.09;5081749;28;20457;-74
2023/08/19 00:27:50;;;;;;;3.30;1.50;;;;;;;20.15;100.00;102104.31;5098180;28;20028;-74
2023/08/19 00:30:16;;;;;;;5.82;1.70;;;;;;;20.27;100.00;102092.63;5080983;28;20028;-75
2023/08/19 00:32:41;;;;;;;4.25;1.50;;;;;;;20.23;100.00;102096.84;5098149;28;20161;-74
2023/08/19 00:35:06;;;;;;;3.60;1.60;;;;;;;20.47;100.00;102103.25;5098782;28;20081;-74
2023/08/19 00:37:32;;;;;;;2.33;1.55;;;;;;;20.39;100.00;102101.66;5099036;28;20024;-74
2023/08/19 00:39:58;;;;;;;2.55;1.42;;;;;;;20.36;100.00;102104.84;5097118;28;20028;-74
2023/08/19 00:42:23;;;;;;;3.60;1.50;;;;;;;20.43;100.00;102097.41;5063083;28;20119;-74
2023/08/19 00:44:48;;;;;;;4.78;1.70;;;;;;;20.36;100.00;102110.31;5096222;28;20031;-73
2023/08/19 00:47:14;;;;;;;4.25;1.60;;;;;;;20.25;100.00;102094.72;5103121;28;20021;-73
2023/08/19 00:49:40;;;;;;;3.60;1.48;;;;;;;20.39;100.00;102107.13;5105569;28;20052;-74
2023/08/19 00:52:06;;;;;;;3.03;1.48;;;;;;;20.29;100.00;102091.28;5094632;28;20036;-74
2023/08/19 00:54:32;;;;;;;3.22;1.45;;;;;;;20.29;100.00;102102.22;5093426;28;20062;-74
2023/08/19 00:56:57;;;;;;;2.78;1.60;;;;;;;20.33;100.00;102091.66;5095466;28;20036;-74
2023/08/19 00:59:23;;;;;;;3.97;1.95;;;;;;;20.42;100.00;102102.03;5101367;28;20047;-73
2023/08/19 01:01:48;;;;;;;3.90;1.75;;;;;;;20.41;100.00;102089.44;5086938;28;20061;-75
2023/08/19 01:04:13;;;;;;;2.85;1.60;;;;;;;20.51;100.00;102086.16;5107389;28;20059;-73
2023/08/19 01:07:08;;;;;;;2.40;1.40;;;;;;;20.59;100.00;102076.78;5099805;28;20031;-75
2023/08/19 01:10:07;;;;;;;5.97;1.70;;;;;;;20.55;100.00;102076.41;5097211;28;20059;-74
2023/08/19 01:12:42;;;;;;;4.28;1.55;;;;;;;20.65;100.00;102090.34;5087889;28;20036;-74
2023/08/19 01:15:14;;;;;;;3.67;1.70;;;;;;;20.52;100.00;102082.34;5079369;28;20039;-74
2023/08/19 01:17:40;;;;;;;3.63;1.63;;;;;;;20.38;100.00;102089.91;5096107;28;20024;-74
2023/08/19 01:20:11;;;;;;;2.78;1.70;;;;;;;20.59;100.00;102080.34;5091292;28;20027;-74
2023/08/19 01:22:43;;;;;;;3.17;1.63;;;;;;;20.58;100.00;102080.59;5097509;28;20028;-74
2023/08/19 01:25:10;;;;;;;2.42;1.88;;;;;;;20.44;100.00;102070.91;5097762;28;20039;-74
2023/08/19 01:27:35;;;;;;;3.22;1.80;;;;;;;20.35;100.00;102062.19;5095162;28;20032;-75
2023/08/19 01:30:00;;;;;;;3.67;1.80;;;;;;;20.40;100.00;102054.13;5097518;28;20027;-74
2023/08/19 01:32:26;;;;;;;3.58;1.80;;;;;;;20.55;100.00;102060.00;5097629;28;20062;-74
2023/08/19 01:34:53;;;;;;;3.50;1.73;;;;;;;20.31;100.00;102066.47;5096075;28;20038;-75
2023/08/19 01:37:29;;;;;;;2.38;1.90;;;;;;;20.40;100.00;102060.44;5096518;28;20105;-74
2023/08/19 01:39:56;;;;;;;3.55;1.60;;;;;;;20.24;100.00;102063.00;5097694;28;20024;-74
2023/08/19 01:42:23;;;;;;;5.75;1.75;;;;;;;20.28;100.00;102034.97;5097955;28;20073;-74
2023/08/19 01:44:50;;;;;;;3.13;1.92;;;;;;;20.34;100.00;102063.28;5100461;28;20028;-74
2023/08/19 01:47:16;;;;;;;2.95;1.98;;;;;;;20.58;100.00;102056.81;5100480;28;20440;-74
2023/08/19 01:49:45;;;;;;;3.83;2.10;;;;;;;20.41;100.00;102042.13;5083351;28;20108;-74
2023/08/19 01:52:14;;;;;;;2.20;1.60;;;;;;;20.36;100.00;102041.97;5106087;28;20032;-74
2023/08/19 01:54:40;;;;;;;4.10;1.98;;;;;;;20.33;100.00;102046.03;5103928;28;20074;-74
2023/08/19 01:57:06;;;;;;;3.55;2.00;;;;;;;20.38;100.00;102039.84;5081168;28;20395;-75
2023/08/19 01:59:33;;;;;;;7.95;1.77;;;;;;;20.22;100.00;102029.59;5099064;28;20394;-73
2023/08/19 02:01:58;;;;;;;2.55;1.67;;;;;;;20.19;100.00;102025.41;5098868;28;20020;-74
2023/08/19 02:04:24;;;;;;;5.25;1.83;;;;;;;20.26;100.00;102028.88;5100309;28;20078;-75
2023/08/19 02:06:50;;;;;;;3.92;1.77;;;;;;;20.17;100.00;102022.13;5099614;28;20024;-75
2023/08/19 02:09:15;;;;;;;4.38;1.80;;;;;;;20.08;100.00;102028.97;5097606;28;20436;-75
2023/08/19 02:11:41;;;;;;;3.90;2.08;;;;;;;20.13;100.00;102029.94;5099828;28;20039;-75
2023/08/19 02:14:08;;;;;;;6.10;2.10;;;;;;;20.04;100.00;102017.69;5079498;28;20028;-73
2023/08/19 02:16:33;;;;;;;4.00;1.88;;;;;;;20.28;100.00;102029.50;5100768;28;20019;-74
2023/08/19 02:19:01;;;;;;;3.53;1.95;;;;;;;20.28;100.00;102023.19;5100727;28;20547;-75
2023/08/19 02:21:26;;;;;;;3.30;2.30;;;;;;;20.29;100.00;102022.13;5101860;28;20073;-74
2023/08/19 02:23:53;;;;;;;3.25;1.83;;;;;;;20.06;100.00;102007.31;5082719;28;20032;-74
2023/08/19 02:26:19;;;;;;;3.28;2.35;;;;;;;20.16;100.00;102018.56;5100655;28;20040;-74
2023/08/19 02:28:44;;;;;;;3.58;1.90;;;;;;;20.16;100.00;102014.97;5101750;28;20102;-74
2023/08/19 02:31:10;;;;;;;3.80;1.98;;;;;;;20.10;100.00;102011.28;5100551;28;20497;-74
2023/08/19 02:33:36;;;;;;;3.85;1.95;;;;;;;19.92;100.00;102003.97;5100463;28;20032;-74
2023/08/19 02:36:02;;;;;;;4.20;2.00;;;;;;;20.03;100.00;102020.63;5100317;28;20506;-74
2023/08/19 02:38:27;;;;;;;3.00;2.00;;;;;;;20.06;100.00;102018.25;5102702;28;20035;-74
2023/08/19 02:40:53;;;;;;;2.65;1.88;;;;;;;20.13;100.00;102016.28;5101968;28;20024;-74
2023/08/19 02:43:19;;;;;;;3.80;2.00;;;;;;;20.10;100.00;102015.91;5082150;28;20024;-73
2023/08/19 02:45:46;;;;;;;5.15;2.40;;;;;;;20.01;100.00;102018.13;5098146;28;20036;-74
2023/08/19 02:48:12;;;;;;;3.65;1.98;;;;;;;20.11;100.00;102017.56;5096969;28;20023;-73
2023/08/19 02:50:37;;;;;;;3.58;2.05;;;;;;;19.87;100.00;102000.28;5097802;28;20051;-73
2023/08/19 02:53:03;;;;;;;3.75;2.00;;;;;;;19.86;100.00;102007.63;5100736;28;20032;-72
2023/08/19 02:55:28;;;;;;;4.75;2.53;;;;;;;19.92;100.00;102027.72;5097852;28;20028;-74
2023/08/19 02:57:54;;;;;;;4.03;2.35;;;;;;;19.84;100.00;102020.69;5080940;28;20047;-73
2023/08/19 03:00:19;;;;;;;5.47;2.20;;;;;;;19.74;100.00;102019.59;5096801;28;20032;-74
2023/08/19 03:02:47;;;;;;;6.47;2.30;;;;;;;19.79;100.00;102006.06;5096451;28;20488;-73
2023/08/19 03:05:13;;;;;;;3.88;2.30;;;;;;;19.87;100.00;102019.41;5097615;28;20031;-73
2023/08/19 03:07:39;;;;;;;2.30;2.10;;;;;;;19.78;100.00;102018.06;5098643;28;20028;-74
2023/08/19 03:10:05;;;;;;;4.28;2.47;;;;;;;19.90;100.00;102021.63;5096862;28;20024;-74
2023/08/19 03:12:31;;;;;;;6.45;2.40;;;;;;;19.98;100.00;102024.06;5098394;28;20077;-73
2023/08/19 03:14:56;;;;;;;4.43;2.35;;;;;;;19.90;100.00;102022.50;5099067;28;20036;-73
2023/08/19 03:17:22;;;;;;;3.45;2.20;;;;;;;19.91;100.00;102017.88;5083197;28;20103;-74
2023/08/19 03:19:47;;;;;;;6.88;2.45;;;;;;;19.78;100.00;102018.06;5100124;28;20490;-74
2023/08/19 03:22:13;;;;;;;2.53;2.10;;;;;;;19.79;100.00;102011.50;5082728;28;20054;-73
2023/08/19 03:24:38;;;;;;;3.03;2.15;;;;;;;19.81;100.00;102017.59;5099943;28;20386;-74
2023/08/19 03:27:04;;;;;;;4.18;2.40;;;;;;;19.89;100.00;102025.44;5101305;28;20055;-73
2023/08/19 03:29:30;;;;;;;4.43;2.30;;;;;;;19.89;100.00;102025.44;5083198;28;20479;-74
2023/08/19 03:31:57;;;;;;;5.32;2.35;;;;;;;19.80;100.00;102021.38;5100978;28;20031;-73
2023/08/19 03:34:22;;;;;;;4.18;2.50;;;;;;;19.76;100.00;102010.06;5100323;28;20023;-74
2023/08/19 03:36:48;;;;;;;3.63;2.30;;;;;;;19.81;100.00;102020.31;5082991;28;20063;-74
2023/08/19 03:39:14;;;;;;;5.60;2.40;;;;;;;19.76;100.00;102010.06;5101424;28;20035;-73
2023/08/19 03:41:39;;;;;;;7.82;2.72;;;;;;;19.63;100.00;102000.16;5100446;28;20027;-73
2023/08/19 03:44:05;;;;;;;2.42;2.22;;;;;;;19.70;100.00;102013.72;5083040;28;20059;-74
2023/08/19 03:46:30;;;;;;;3.55;2.20;;;;;;;19.75;100.00;102016.59;5098267;28;20463;-73
2023/08/19 03:48:55;;;;;;;5.68;2.20;;;;;;;19.64;100.00;102025.59;5095590;28;20079;-73
2023/08/19 03:51:21;;;;;;;3.83;2.38;;;;;;;19.74;100.00;102034.06;5085296;28;20032;-74
2023/08/19 03:53:46;;;;;;;4.45;2.22;;;;;;;19.84;100.00;102025.31;5099450;28;20044;-73
2023/08/19 03:56:12;;;;;;;4.45;2.53;;;;;;;19.81;100.00;102023.06;5098301;28;20039;-74
2023/08/19 03:58:37;;;;;;;6.20;2.40;;;;;;;19.92;100.00;102019.53;5096294;28;20130;-73
2023/08/19 04:01:07;;;;;;;3.63;2.40;;;;;;;19.87;100.00;102022.97;5097819;28;20032;-74
2023/08/19 04:03:33;;;;;;;6.15;2.67;;;;;;;19.78;100.00;101999.75;5092617;28;20054;-74
2023/08/19 04:06:01;;;;;;;6.35;2.55;;;;;;;19.92;100.00;102014.88;5075386;28;20032;-74
2023/08/19 04:08:27;;;;;;;3.50;2.20;;;;;;;19.94;100.00;102031.06;5093333;28;20028;-73
2023/08/19 04:10:52;;;;;;;5.15;2.50;;;;;;;19.91;100.00;102018.69;5094076;28;20031;-73
2023/08/19 04:13:18;;;;;;;2.95;2.30;;;;;;;19.90;100.00;102021.63;5092204;28;20610;-73
2023/08/19 04:15:43;;;;;;;3.90;2.53;;;;;;;19.81;100.00;102025.78;5096745;28;20032;-74
2023/08/19 04:18:10;;;;;;;4.07;2.45;;;;;;;19.92;100.00;102016.78;5112039;28;20025;-73
2023/08/19 04:20:39;;;;;;;4.78;2.50;;;;;;;19.98;100.00;102024.06;5101232;28;20028;-73
2023/08/19 04:23:05;;;;;;;4.55;2.47;;;;;;;19.91;100.00;102020.59;5096161;28;20120;-73
2023/08/19 04:25:31;;;;;;;3.30;2.50;;;;;;;19.86;100.00;101998.59;5097149;28;20020;-73
2023/08/19 04:27:56;;;;;;;3.28;2.40;;;;;;;20.07;100.00;102021.84;5108942;28;20024;-73
2023/08/19 04:30:22;;;;;;;3.75;2.60;;;;;;;20.02;100.00;102022.53;5109506;28;20035;-73
2023/08/19 04:32:47;;;;;;;4.22;2.72;;;;;;;20.23;100.00;102014.84;5104189;28;20020;-74
2023/08/19 04:35:13;;;;;;;8.25;2.60;;;;;;;20.03;100.00;101993.31;5099341;28;20043;-73
2023/08/19 04:37:39;;;;;;;4.43;2.60;;;;;;;20.04;100.00;102008.66;5098720;28;20074;-73
2023/08/19 04:40:09;;;;;;;3.60;2.50;;;;;;;19.97;100.00;102014.22;5098175;28;20028;-73
2023/08/19 04:42:38;;;;;;;4.50;2.80;;;;;;;20.17;100.00;102014.75;5096656;28;20032;-73
2023/08/19 04:45:07;;;;;;;6.43;2.95;;;;;;;20.37;100.00;102010.88;5096393;28;20023;-73
2023/08/19 04:47:33;;;;;;;8.60;2.75;;;;;;;20.21;100.00;102004.16;5096147;28;20074;-73
2023/08/19 04:49:59;;;;;;;4.00;2.72;;;;;;;20.12;100.00;101981.81;5097410;28;20048;-73
2023/08/19 04:52:26;;;;;;;5.88;3.00;;;;;;;20.14;100.00;101995.25;5100706;28;20061;-73
2023/08/19 04:54:51;;;;;;;4.88;2.92;;;;;;;19.78;100.00;101960.69;5097828;28;20618;-74
2023/08/19 04:57:16;;;;;;;5.88;3.05;;;;;;;20.07;100.00;101986.31;5096861;28;20036;-73
2023/08/19 04:59:42;;;;;;;7.63;3.05;;;;;;;20.09;100.00;101971.34;5095443;28;20039;-74
2023/08/19 05:02:07;;;;;;;8.10;3.30;;;;;;;20.12;100.00;101981.81;5077795;28;20043;-74
2023/08/19 05:04:33;;;;;;;5.90;3.47;;;;;;;19.91;100.00;101968.69;5092068;28;20020;-74
2023/08/19 05:06:59;;;;;;;6.05;3.25;;;;;;;20.21;100.00;101973.28;5077253;28;20032;-74
2023/08/19 05:09:24;;;;;;;5.72;3.47;;;;;;;20.15;100.00;101975.03;5079315;28;20062;-73
2023/08/19 05:11:49;;;;;;;5.25;3.25;;;;;;;20.11;100.00;101968.38;5097063;28;20048;-73
2023/08/19 05:14:15;;;;;;;8.10;3.50;;;;;;;20.26;100.00;101973.41;5097477;28;20032;-73
2023/08/19 05:16:40;;;;;;;4.75;3.33;;;;;;;20.37;100.00;101978.88;5097485;28;20028;-73
2023/08/19 05:19:18;;;;;;;9.18;3.65;;;;;;;20.39;100.00;101978.63;5095775;28;20028;-74
2023/08/19 05:21:44;;;;;;;6.13;3.47;;;;;;;20.55;100.00;101979.88;5099284;28;20391;-73
2023/08/19 05:24:11;;;;;;;5.57;3.08;;;;;;;20.86;100.00;101995.94;5100557;28;20024;-74
2023/08/19 05:26:41;;;;;;;6.07;3.83;;;;;;;20.85;100.00;101988.78;5098862;28;20092;-74
2023/08/19 05:29:06;;;;;;;3.10;2.80;;;;;;;20.79;100.00;101988.91;5081459;28;20047;-75
2023/08/19 05:31:32;;;;;;;5.05;3.10;;;;;;;20.91;100.00;101989.75;5077637;28;20043;-73
2023/08/19 05:33:57;;;;;;;4.22;2.70;;;;;;;20.81;100.00;101994.97;5094569;28;20050;-75
2023/08/19 05:36:23;;;;;;;3.67;3.00;;;;;;;20.70;100.00;101979.41;5095678;28;20032;-73
2023/08/19 05:38:48;;;;;;;4.28;3.05;;;;;;;20.71;100.00;101990.09;5090385;28;20058;-72
2023/08/19 05:41:14;;;;;;;3.35;2.67;;;;;;;20.77;100.00;101980.13;5089075;28;20054;-72
2023/08/19 05:43:39;;;;;;;4.53;2.80;;;;;;;20.60;100.00;101955.41;5088627;28;20036;-75
2023/08/19 05:46:06;;;;;;;4.72;2.72;;;;;;;20.62;100.00;101975.94;5074426;28;20042;-75
2023/08/19 05:48:32;;;;;;;4.60;3.10;;;;;;;20.58;100.00;101955.63;5072188;28;20017;-74
2023/08/19 05:50:58;;;;;;;5.30;3.08;;;;;;;20.77;100.00;101978.22;5081027;28;20051;-73
2023/08/19 05:53:24;;;;;;;2.38;2.17;;;;;;;20.94;100.00;101985.69;5084903;28;20066;-74
2023/08/19 05:55:50;;;;;;;2.97;2.67;;;;;;;20.91;100.00;101981.53;5092434;28;20035;-77
2023/08/19 05:58:16;;;;;;;3.78;2.65;;;;;;;20.81;100.00;101987.59;5098095;28;20386;-76
2023/08/19 06:00:42;;;;;;;3.97;3.00;;;;;;;20.97;100.00;101986.06;5096854;28;20036;-76
2023/08/19 06:03:08;;;;;;;3.92;2.63;;;;;;;20.89;100.00;101978.19;5077371;28;20093;-73
2023/08/19 06:05:35;;;;;;;4.22;2.85;;;;;;;20.93;100.00;101987.63;5088622;28;20032;-75
2023/08/19 06:08:00;;;;;;;4.05;2.75;;;;;;;21.10;100.00;101983.06;5100478;28;20077;-73
2023/08/19 06:10:26;;;;;;;3.72;2.75;;;;;;;21.07;100.00;101977.22;5101519;28;20024;-72
2023/08/19 06:12:51;;;;;;;5.57;2.90;;;;;;;21.28;100.00;101987.53;5099165;28;20474;-72
2023/08/19 06:15:17;;;;;;;3.03;2.72;;;;;;;21.35;100.00;101987.44;5089976;28;20122;-73
2023/08/19 06:17:42;;;;;;;7.57;3.03;;;;;;;21.65;100.00;101978.97;5088259;28;20060;-73
2023/08/19 06:20:08;;;;;;;5.13;2.47;;;;;;;21.58;100.00;101968.16;5079203;28;20040;-73
2023/08/19 06:22:33;;;;;;;2.60;2.40;;;;;;;21.83;100.00;101974.41;5074600;28;20032;-74
2023/08/19 06:24:59;;;;;;;4.18;2.63;;;;;;;22.26;100.00;101962.84;5064891;28;20069;-72
2023/08/19 06:27:24;;;;;;;3.78;2.47;;;;;;;22.40;100.00;101950.44;5084479;28;20032;-73
2023/08/19 06:29:49;;;;;;;6.72;2.30;;;;;;;22.44;100.00;101943.38;5076856;28;20024;-74
2023/08/19 06:32:15;;;;;;;3.83;2.35;;;;;;;22.43;100.00;101943.63;5077196;28;20043;-74
2023/08/19 06:34:41;;;;;;;2.65;2.05;;;;;;;22.34;100.00;101942.41;5074773;28;20089;-72
2023/08/19 06:37:10;;;;;;;2.83;2.35;;;;;;;22.54;100.00;101958.34;5079127;28;20036;-72
2023/08/19 06:39:38;;;;;;;4.13;2.30;;;;;;;22.88;100.00;101935.25;5095744;28;20039;-72
2023/08/19 06:42:05;;;;;;;4.22;2.00;;;;;;;22.85;100.00;101938.50;5088610;28;20032;-73
2023/08/19 06:44:39;;;;;;;2.28;1.90;;;;;;;23.29;100.00;101941.28;5087748;28;20031;-71
2023/08/19 06:47:07;;;;;;;;;;;;;;;23.53;100.00;101949.22;5088863;28;20028;-73
2023/08/19 06:49:33;;;;;;;2.28;2.08;;;;;;;23.82;99.39;101942.41;5081286;28;19924;-72
2023/08/19 06:51:59;;;;;;;2.70;1.88;;;;;;;23.72;99.93;101944.25;5082077;28;20035;-73
2023/08/19 06:54:26;;;;;;;5.28;2.03;;;;;;;23.09;100.00;101952.00;5095755;28;20041;-73
2023/08/19 06:57:09;;;;;;;2.28;1.90;;;;;;;23.40;100.00;101945.78;5060836;28;20032;-72
2023/08/19 06:59:39;;;;;;;2.97;1.98;;;;;;;23.32;100.00;101949.00;5083437;28;20143;-72
2023/08/19 07:02:07;;;;;;;2.97;1.98;;;;;;;23.10;100.00;101948.16;5085345;28;20043;-72
2023/08/19 07:04:34;;;;;;;2.53;1.67;;;;;;;23.16;100.00;101944.41;5085671;28;20423;-72
2023/08/19 07:07:04;;;;;;;2.30;1.90;;;;;;;23.11;100.00;101947.94;5083584;28;20074;-72
2023/08/19 07:09:30;;;;;;;2.42;1.80;;;;;;;23.07;100.00;101945.94;5084920;28;20115;-72
2023/08/19 07:11:57;;;;;;;2.95;1.80;;;;;;;22.85;100.00;101957.72;5088031;28;20055;-73
2023/08/19 07:14:27;;;;;;;3.38;2.00;;;;;;;23.03;100.00;101953.84;5087928;28;20028;-71
2023/08/19 07:16:55;;;;;;;3.50;2.22;;;;;;;22.94;100.00;101952.63;5101911;28;20058;-72
2023/08/19 07:19:34;;;;;;;3.92;1.90;;;;;;;23.30;100.00;101956.66;5101684;28;20054;-72
2023/08/19 07:22:00;;;;;;;2.10;1.90;;;;;;;23.13;100.00;101953.16;5100327;28;20031;-73
2023/08/19 07:24:26;;;;;;;1.83;1.73;;;;;;;22.81;100.00;101962.00;5099238;28;20016;-72
2023/08/19 07:26:51;;;;;;;2.17;1.90;;;;;;;23.19;100.00;101958.44;5098988;28;20533;-72
2023/08/19 07:29:17;;;;;;;3.10;2.00;;;;;;;23.16;100.00;101934.25;5098735;28;20121;-72
2023/08/19 07:31:43;;;;;;;3.10;1.73;;;;;;;23.43;100.00;101956.25;5099627;28;20109;-72
2023/08/19 07:34:08;;;;;;;2.03;1.80;;;;;;;23.41;100.00;101961.19;5081864;28;20032;-72
2023/08/19 07:36:34;;;;;;;2.40;1.65;;;;;;;23.18;100.00;101959.53;5081140;28;20042;-72
2023/08/19 07:39:00;;;;;;;1.98;1.77;;;;;;;23.43;100.00;101950.75;5082857;28;20115;-73
2023/08/19 07:41:25;;;;;;;3.15;1.73;;;;;;;23.55;100.00;101936.06;5068199;28;20031;-73
2023/08/19 07:43:51;;;;;;;1.95;1.80;;;;;;;23.39;100.00;101960.59;5098070;28;20438;-72
2023/08/19 07:46:17;;;;;;;1.95;1.67;;;;;;;23.77;99.80;101955.25;5086232;28;20078;-72
2023/08/19 07:48:43;;;;;;;2.83;1.80;;;;;;;23.43;100.00;101956.25;5096620;28;20513;-70
2023/08/19 07:51:08;;;;;;;2.00;1.73;;;;;;;23.00;100.00;101939.81;5087029;28;20131;-72
2023/08/19 07:53:34;;;;;;;2.75;1.90;;;;;;;23.26;100.00;101932.72;5084355;28;20626;-73
2023/08/19 07:55:59;;;;;;;2.58;1.90;;;;;;;23.61;100.00;101946.03;5066809;28;20034;-72
2023/08/19 07:58:25;;;;;;;2.97;2.00;;;;;;;23.75;99.19;101958.28;5099852;28;20024;-73
2023/08/19 08:00:50;;;;;;;2.95;1.80;;;;;;;24.00;97.77;101968.69;5099452;28;20039;-73
2023/08/19 08:03:15;;;;;;;2.80;1.80;;;;;;;24.01;97.83;101961.28;5099182;28;20483;-72
2023/08/19 08:05:41;;;;;;;3.17;1.85;;;;;;;23.66;98.75;101933.16;5101907;28;20044;-72
2023/08/19 08:08:06;;;;;;;3.15;1.85;;;;;;;24.04;97.85;101966.22;5098286;28;20020;-71
2023/08/19 08:10:32;;;;;;;2.35;1.73;;;;;;;23.67;99.03;101962.31;5099136;28;20035;-73
2023/08/19 08:12:57;;;;;;;2.60;2.03;;;;;;;23.97;97.71;101957.38;5099240;28;20043;-73
2023/08/19 08:15:23;;;;;;;3.30;1.90;;;;;;;24.35;95.50;101956.34;5097344;28;20387;-73
2023/08/19 08:17:48;;;;;;;3.30;2.17;;;;;;;24.08;96.79;101950.91;5097030;28;20047;-72
2023/08/19 08:20:14;;;;;;;2.35;2.00;;;;;;;23.70;98.98;101951.91;5096618;28;20388;-73
2023/08/19 08:22:39;;;;;;;2.20;1.95;;;;;;;23.55;99.35;101941.56;5083145;28;20467;-72
2023/08/19 08:25:05;;;;;;;4.55;2.10;;;;;;;24.13;97.83;101960.00;5100467;28;20027;-74
2023/08/19 08:27:30;;;;;;;2.10;1.90;;;;;;;24.12;96.68;101968.53;5099565;28;20024;-71
2023/08/19 08:29:56;;;;;;;2.05;1.85;;;;;;;24.69;93.75;101970.63;5098367;28;20077;-71
2023/08/19 08:32:21;;;;;;;2.75;1.90;;;;;;;24.65;94.14;101965.94;5099725;28;20028;-72
2023/08/19 08:34:47;;;;;;;2.88;2.03;;;;;;;24.70;93.32;101966.78;5098440;28;20032;-74
2023/08/19 08:37:12;;;;;;;2.28;1.88;;;;;;;24.61;93.15;101980.22;5101521;28;20162;-73
2023/08/19 08:39:38;;;;;;;3.03;2.10;;;;;;;25.04;92.24;101969.19;5100322;28;20106;-73
2023/08/19 08:42:05;;;;;;;2.75;2.13;;;;;;;25.24;89.82;101974.81;5099924;28;20748;-72
2023/08/19 08:44:33;;;;;;;1.90;1.80;;;;;;;25.44;88.02;101948.41;5099117;28;20391;-72
2023/08/19 08:47:00;;;;;;;2.17;1.95;;;;;;;24.89;90.04;101964.41;5101615;28;20024;-73
2023/08/19 08:49:27;;;;;;;2.25;2.05;;;;;;;25.06;90.12;101956.78;5083556;28;20063;-73
2023/08/19 08:51:53;;;;;;;2.33;2.13;;;;;;;24.83;90.27;101947.06;5099376;28;20036;-72
2023/08/19 08:54:21;;;;;;;4.78;2.30;;;;;;;25.38;88.54;101966.03;5099343;28;20039;-72
2023/08/19 08:56:47;;;;;;;2.30;2.10;;;;;;;25.15;88.45;101954.38;5098968;28;20020;-73
2023/08/19 08:59:13;;;;;;;3.22;2.03;;;;;;;25.14;89.57;101973.94;5100252;28;20028;-73
2023/08/19 09:01:41;;;;;;;3.20;2.03;;;;;;;25.45;87.85;101972.13;5098830;28;20028;-73
2023/08/19 09:04:10;;;;;;;2.83;2.10;;;;;;;25.20;88.38;101970.94;5100227;28;20027;-72
2023/08/19 09:06:38;;;;;;;2.40;2.13;;;;;;;24.68;90.90;101968.97;5101291;28;20034;-73
2023/08/19 09:09:10;;;;;;;2.58;2.10;;;;;;;24.70;92.14;101971.44;5101625;28;20390;-73
2023/08/19 09:11:39;;;;;;;2.28;2.08;;;;;;;24.30;93.72;101990.13;5102693;28;20383;-72
2023/08/19 09:14:21;;;;;;;2.63;2.10;;;;;;;24.61;91.45;101963.72;5100106;28;20020;-72
2023/08/19 09:16:47;;;;;;;4.72;2.38;;;;;;;24.47;93.10;101972.66;5100193;28;20032;-72
2023/08/19 09:19:13;;;;;;;2.65;2.35;;;;;;;24.05;94.62;101976.16;5099054;28;20069;-73
2023/08/19 09:21:39;;;;;;;3.78;2.38;;;;;;;24.17;94.67;101968.56;5100385;28;20020;-73
2023/08/19 09:24:05;;;;;;;2.85;2.33;;;;;;;24.52;93.26;101981.78;5100338;28;20658;-73
2023/08/19 09:26:31;;;;;;;2.78;2.40;;;;;;;24.30;94.32;101968.09;5083918;28;20035;-73
2023/08/19 09:28:57;;;;;;;3.88;2.22;;;;;;;24.39;93.91;101968.47;5098429;28;20095;-72
2023/08/19 09:31:24;;;;;;;4.68;2.30;;;;;;;24.57;92.42;101959.84;5101481;28;20027;-72
2023/08/19 09:33:53;;;;;;;3.08;2.47;;;;;;;24.51;93.34;101971.91;5100347;28;20032;-73
2023/08/19 09:36:23;;;;;;;2.65;2.17;;;;;;;24.78;92.82;101970.97;5099925;28;20032;-72
2023/08/19 09:38:56;;;;;;;3.40;2.40;;;;;;;24.93;90.39;101959.19;5099740;28;20050;-72
2023/08/19 09:41:27;;;;;;;2.88;2.42;;;;;;;25.01;91.98;101953.19;5097618;28;20020;-72
2023/08/19 09:43:53;;;;;;;3.53;2.30;;;;;;;25.02;90.22;101939.13;5077967;28;20484;-72
2023/08/19 09:46:19;;;;;;;3.20;2.35;;;;;;;25.29;88.96;101943.69;5101974;28;20255;-72
2023/08/19 09:48:54;;;;;;;2.75;2.55;;;;;;;25.06;89.72;101950.44;5099928;28;20028;-73
2023/08/19 09:51:24;;;;;;;2.45;2.25;;;;;;;25.19;88.18;101933.44;5098193;28;20040;-73
2023/08/19 09:53:49;;;;;;;2.70;2.45;;;;;;;25.67;86.52;101938.84;5097332;28;20199;-73
2023/08/19 09:56:25;;;;;;;2.92;2.60;;;;;;;25.83;86.15;101923.13;5083681;28;20053;-72
2023/08/19 09:58:54;;;;;;;5.55;2.72;;;;;;;26.16;84.82;101917.09;5083254;28;20048;-72
2023/08/19 10:01:22;;;;;;;3.58;2.97;;;;;;;25.16;88.57;101922.16;5083284;28;20040;-72
2023/08/19 10:03:48;;;;;;;2.33;2.13;;;;;;;25.50;88.60;101917.03;5082086;28;20031;-70
2023/08/19 10:06:17;;;;;;;3.97;2.65;;;;;;;25.55;87.23;101903.25;5088242;28;20028;-72
2023/08/19 10:08:46;;;;;;;3.13;2.35;;;;;;;25.34;87.68;101899.63;5091658;28;20026;-72
2023/08/19 10:11:15;;;;;;;4.13;2.70;;;;;;;25.50;88.19;101894.97;5087599;28;20028;-73
2023/08/19 10:13:43;;;;;;;2.67;2.47;;;;;;;25.46;88.19;101893.84;5088516;28;20123;-73
2023/08/19 10:16:09;;;;;;;2.88;2.60;;;;;;;25.91;85.70;101893.09;5095143;28;20052;-73
2023/08/19 10:18:38;;;;;;;3.45;2.70;;;;;;;25.72;86.92;101898.28;5087655;28;20151;-73
2023/08/19 10:21:07;;;;;;;3.25;2.70;;;;;;;26.10;84.87;101903.59;5089062;28;20024;-72
2023/08/19 10:23:33;;;;;;;3.90;2.85;;;;;;;26.24;82.97;101901.91;5116539;27;20355;-72
2023/08/19 10:26:00;;;;;;;2.78;2.58;;;;;;;26.07;83.90;101885.66;5086691;28;20295;-73
2023/08/19 10:28:27;;;;;;;4.13;2.78;;;;;;;26.20;83.64;101901.63;5087983;28;20110;-73
2023/08/19 10:31:12;;;;;;;2.83;2.53;;;;;;;25.65;85.50;101905.19;5086208;28;20185;-73
2023/08/19 10:33:45;;;;;;;4.18;2.60;;;;;;;25.82;86.06;101905.78;5083262;28;20032;-73
2023/08/19 10:36:18;;;;;;;3.20;2.85;;;;;;;25.84;85.87;101895.31;5083955;28;20158;-73
2023/08/19 10:38:58;;;;;;;2.90;2.60;;;;;;;26.02;84.63;101897.50;5090716;28;20032;-73
2023/08/19 10:41:33;;;;;;;3.15;2.55;;;;;;;25.85;83.72;101904.41;5100966;28;20059;-73
2023/08/19 10:44:08;;;;;;;3.17;2.65;;;;;;;26.03;84.47;101903.88;5081877;28;20101;-73
2023/08/19 10:46:36;;;;;;;3.40;2.88;;;;;;;26.13;84.55;101903.84;5102021;28;20035;-75
2023/08/19 10:49:11;;;;;;;3.53;2.90;;;;;;;25.89;84.87;101908.25;5104606;28;20016;-74
2023/08/19 10:52:05;;;;;;;2.90;2.70;;;;;;;26.13;83.66;101886.47;5086574;28;20092;-74
2023/08/19 10:54:38;;;;;;;4.65;2.70;;;;;;;25.91;83.96;101890.34;5103297;28;20020;-73
2023/08/19 10:57:26;;;;;;;4.32;2.53;;;;;;;25.76;85.59;101904.06;5102638;28;20024;-72
2023/08/19 10:59:59;;;;;;;3.03;2.72;;;;;;;26.26;84.11;101896.94;5103425;28;20027;-73
2023/08/19 11:02:27;;;;;;;3.03;2.67;;;;;;;26.26;83.13;101891.44;5102536;28;20104;-73
2023/08/19 11:04:53;;;;;;;4.78;2.70;;;;;;;26.50;82.41;101899.13;5099232;28;20035;-72
2023/08/19 11:07:20;;;;;;;3.55;2.67;;;;;;;26.64;81.25;101892.72;5099855;28;20020;-74
2023/08/19 11:09:47;;;;;;;3.40;3.00;;;;;;;26.24;83.47;101899.97;5101537;28;20560;-72
2023/08/19 11:12:17;;;;;;;5.10;3.10;;;;;;;26.61;82.39;101890.53;5096500;28;20084;-73
2023/08/19 11:14:55;;;;;;;3.08;2.70;;;;;;;26.37;82.14;101884.78;5100259;28;20027;-73
2023/08/19 11:17:28;;;;;;;3.55;2.75;;;;;;;26.15;83.37;101892.53;5099961;28;20020;-73
2023/08/19 11:19:53;;;;;;;3.30;2.80;;;;;;;25.88;85.36;101899.16;5104868;28;20024;-72